M/y La Pellegrina — ZGFH8 — position and weather

sailwx.info

Track history (hours):
 
Tides and Currents Weather Stations Pressure Air Temp Water Temp Dewpoint Dewpoint Depression Visibility Wind Speed Wind Dir Waves Ship Positions

M/y La Pellegrina

Last reported at 2017-Nov-17 21:00 UTC. Time now 2017-Nov-17 21:08 UTC.
Position N 25°47' W 080°11'.

Length 44 m; draft 2.6 m.

Type: Pleasure craft. MMSI: 319090300.

Date/timePositionNaut miles runAvg speedWind from/ knotsBaromVisibWave heightAir tempDewpointWater temp
2017-Nov-17 21:00N 25°47' W 080°11'0 0.0
2017-Nov-17 20:30N 25°47' W 080°11'0 0.0
2017-Nov-17 20:00N 25°47' W 080°11'0 0.0
2017-Nov-17 19:30N 25°47' W 080°11'0 0.0
2017-Nov-17 19:00N 25°47' W 080°11'0 0.0
2017-Nov-17 18:30N 25°47' W 080°11'0 0.0
2017-Nov-17 18:00N 25°47' W 080°11'0 0.0
2017-Nov-17 17:30N 25°47' W 080°11'0 0.0
2017-Nov-17 17:00N 25°47' W 080°11'0 0.0
2017-Nov-17 16:30N 25°47' W 080°11'0 0.0
2017-Nov-17 16:00N 25°47' W 080°11'0 0.0
2017-Nov-17 15:30N 25°47' W 080°11'0 0.0
2017-Nov-17 15:00N 25°47' W 080°11'0 0.0
2017-Nov-17 14:30N 25°47' W 080°11'0 0.0
2017-Nov-17 14:00N 25°47' W 080°11'0 0.0
2017-Nov-17 13:30N 25°47' W 080°11'0 0.0
2017-Nov-17 13:00N 25°47' W 080°11'0 0.0
2017-Nov-17 12:30N 25°47' W 080°11'0 0.0
2017-Nov-17 12:00N 25°47' W 080°11'0 0.0
2017-Nov-17 11:30N 25°47' W 080°11'0 0.0
2017-Nov-17 11:00N 25°47' W 080°11'0 0.0
2017-Nov-17 10:30N 25°47' W 080°11'0 0.0
2017-Nov-17 10:00N 25°47' W 080°11'0 0.0
2017-Nov-17 09:30N 25°47' W 080°11'0 0.0
2017-Nov-17 09:00N 25°47' W 080°11'0 0.0
2017-Nov-17 08:30N 25°47' W 080°11'0 0.0
2017-Nov-17 08:00N 25°47' W 080°11'0 0.0
2017-Nov-17 07:30N 25°47' W 080°11'0 0.0
2017-Nov-17 07:00N 25°47' W 080°11'0 0.0
2017-Nov-17 06:30N 25°47' W 080°11'0 0.0
2017-Nov-17 06:00N 25°47' W 080°11'0 0.0
2017-Nov-17 05:30N 25°47' W 080°11'0 0.0
2017-Nov-17 05:00N 25°47' W 080°11'0 0.0
2017-Nov-17 04:30N 25°47' W 080°11'0 0.0
2017-Nov-17 04:00N 25°47' W 080°11'0 0.0
2017-Nov-17 03:30N 25°47' W 080°11'0 0.0
2017-Nov-17 03:00N 25°47' W 080°11'0 0.0
2017-Nov-17 02:30N 25°47' W 080°11'0 0.0
2017-Nov-17 02:00N 25°47' W 080°11'0 0.0
2017-Nov-17 01:30N 25°47' W 080°11'0 0.0
2017-Nov-17 01:00N 25°47' W 080°11'0 0.0
2017-Nov-17 00:30N 25°47' W 080°11'0 0.0
2017-Nov-17 00:00N 25°47' W 080°11'0 0.0
2017-Nov-16 23:30N 25°47' W 080°11'0 0.0
2017-Nov-16 23:00N 25°47' W 080°11'0 0.0
2017-Nov-16 22:30N 25°47' W 080°11'0 0.0
2017-Nov-16 22:00N 25°47' W 080°11'0 0.0
2017-Nov-16 21:30N 25°47' W 080°11'1 1.2
2017-Nov-16 21:00N 25°47' W 080°11'2 3.2
2017-Nov-16 20:30N 25°46' W 080°09'2 3.9
2017-Nov-16 20:00N 25°46' W 080°07'0 0.0
2017-Nov-16 19:30N 25°46' W 080°07'0 0.0
2017-Nov-16 19:00N 25°46' W 080°07'0 0.0
2017-Nov-16 18:30N 25°46' W 080°07'0 0.0
2017-Nov-16 18:00N 25°46' W 080°07'0 0.0
2017-Nov-16 17:30N 25°46' W 080°07'2 4.6
2017-Nov-16 17:00N 25°46' W 080°05'0 0.6
2017-Nov-16 16:30N 25°46' W 080°04'4 7.2
2017-Nov-16 16:00N 25°43' W 080°04'4 7.9
2017-Nov-16 15:30N 25°39' W 080°04'1 1.5
2017-Nov-16 15:00N 25°39' W 080°04'613.1
2017-Nov-16 14:30N 25°45' W 080°07'4 7.4
2017-Nov-16 13:58N 25°47' W 080°11'0 0.4
2017-Nov-16 13:28N 25°47' W 080°11'0 0.0
2017-Nov-16 12:58N 25°47' W 080°11'0 0.0
2017-Nov-16 12:28N 25°47' W 080°11'0 0.0
2017-Nov-16 11:55N 25°47' W 080°11'0 0.0
2017-Nov-16 11:22N 25°47' W 080°11'0 0.0
2017-Nov-16 10:58N 25°47' W 080°11'0 0.0
2017-Nov-16 10:28N 25°47' W 080°11'0 0.0
2017-Nov-16 09:58N 25°47' W 080°11'0 0.0
2017-Nov-16 09:28N 25°47' W 080°11'0 0.0
2017-Nov-16 08:58N 25°47' W 080°11'0 0.0
2017-Nov-16 08:28N 25°47' W 080°11'0 0.0
2017-Nov-16 07:58N 25°47' W 080°11'0 0.0
2017-Nov-16 07:28N 25°47' W 080°11'0 0.0
2017-Nov-16 06:58N 25°47' W 080°11'0 0.0
2017-Nov-16 06:25N 25°47' W 080°11'0 0.0
2017-Nov-16 05:58N 25°47' W 080°11'0 0.0
2017-Nov-16 05:28N 25°47' W 080°11'0 0.0
2017-Nov-16 04:58N 25°47' W 080°11'0 0.0
2017-Nov-16 04:28N 25°47' W 080°11'0 0.0
2017-Nov-16 03:58N 25°47' W 080°11'0 0.0
2017-Nov-16 03:28N 25°47' W 080°11'0 0.0
2017-Nov-16 02:58N 25°47' W 080°11'0 0.0
2017-Nov-16 02:28N 25°47' W 080°11'0 0.0
2017-Nov-16 01:58N 25°47' W 080°11'0 0.0
2017-Nov-16 01:28N 25°47' W 080°11'0 0.0
2017-Nov-16 00:58N 25°47' W 080°11'0 0.0
2017-Nov-16 00:28N 25°47' W 080°11'0 0.0
2017-Nov-15 23:58N 25°47' W 080°11'0 0.0
2017-Nov-15 23:25N 25°47' W 080°11'0 0.0
2017-Nov-15 22:58N 25°47' W 080°11'0 0.0
2017-Nov-15 22:28N 25°47' W 080°11'0 0.0
2017-Nov-15 21:58N 25°47' W 080°11'0 0.0
2017-Nov-15 21:25N 25°47' W 080°11'0 0.0
2017-Nov-15 20:58N 25°47' W 080°11'0 0.0
2017-Nov-15 20:22N 25°47' W 080°11'0 0.0
2017-Nov-15 19:55N 25°47' W 080°11'0 0.0
2017-Nov-15 19:25N 25°47' W 080°11'0 0.0
2017-Nov-15 18:58N 25°47' W 080°11'0 0.0
2017-Nov-15 18:28N 25°47' W 080°11'0 0.0
2017-Nov-15 17:52N 25°47' W 080°11'0 0.0
2017-Nov-15 17:28N 25°47' W 080°11'0 0.0
2017-Nov-15 16:58N 25°47' W 080°11'0 0.0
2017-Nov-15 16:28N 25°47' W 080°11'0 0.0
2017-Nov-15 15:58N 25°47' W 080°11'0 0.0
2017-Nov-15 15:28N 25°47' W 080°11'0 0.0
2017-Nov-15 14:58N 25°47' W 080°11'0 0.0
2017-Nov-15 14:28N 25°47' W 080°11'0 0.0
2017-Nov-15 13:55N 25°47' W 080°11'0 0.0
2017-Nov-15 13:28N 25°47' W 080°11'0 0.0
2017-Nov-15 12:58N 25°47' W 080°11'0 0.0
2017-Nov-15 12:28N 25°47' W 080°11'0 0.0
2017-Nov-15 11:58N 25°47' W 080°11'0 0.0
2017-Nov-15 11:28N 25°47' W 080°11'0 0.0
2017-Nov-15 10:58N 25°47' W 080°11'0 0.0
2017-Nov-15 10:28N 25°47' W 080°11'0 0.0
2017-Nov-15 09:58N 25°47' W 080°11'0 0.0
2017-Nov-15 09:28N 25°47' W 080°11'0 0.0
2017-Nov-15 08:58N 25°47' W 080°11'0 0.0
2017-Nov-15 08:28N 25°47' W 080°11'0 0.0
2017-Nov-15 07:58N 25°47' W 080°11'0 0.0
2017-Nov-15 07:28N 25°47' W 080°11'0 0.0
2017-Nov-15 06:55N 25°47' W 080°11'0 0.0
2017-Nov-15 06:25N 25°47' W 080°11'0 0.0
2017-Nov-15 05:58N 25°47' W 080°11'0 0.0
2017-Nov-15 05:25N 25°47' W 080°11'0 0.0
2017-Nov-15 04:58N 25°47' W 080°11'0 0.0
2017-Nov-15 04:28N 25°47' W 080°11'0 0.0
2017-Nov-15 03:55N 25°47' W 080°11'0 0.0
2017-Nov-15 03:28N 25°47' W 080°11'0 0.0
2017-Nov-15 02:55N 25°47' W 080°11'0 0.0
2017-Nov-15 02:28N 25°47' W 080°11'0 0.0
2017-Nov-15 01:58N 25°47' W 080°11'0 0.0
2017-Nov-15 01:28N 25°47' W 080°11'0 0.0
2017-Nov-15 00:55N 25°47' W 080°11'0 0.0
2017-Nov-15 00:28N 25°47' W 080°11'0 0.0
2017-Nov-14 23:55N 25°47' W 080°11'0 0.0
2017-Nov-14 23:28N 25°47' W 080°11'0 0.0
2017-Nov-14 22:55N 25°47' W 080°11'0 0.0
2017-Nov-14 22:28N 25°47' W 080°11'0 0.0
2017-Nov-14 21:58N 25°47' W 080°11'0 0.0
2017-Nov-14 21:28N 25°47' W 080°11'0 0.0
2017-Nov-14 20:58N 25°47' W 080°11'0 0.0
2017-Nov-14 20:28N 25°47' W 080°11'0 0.0
2017-Nov-14 19:55N 25°47' W 080°11'0 0.0
2017-Nov-14 19:28N 25°47' W 080°11'0 0.0
2017-Nov-14 18:58N 25°47' W 080°11'0 0.0
2017-Nov-14 18:28N 25°47' W 080°11'0 0.0
2017-Nov-14 17:58N 25°47' W 080°11'0 0.0
2017-Nov-14 17:28N 25°47' W 080°11'0 0.0
2017-Nov-14 16:58N 25°47' W 080°11'0 0.0
2017-Nov-14 16:25N 25°47' W 080°11'0 0.0
2017-Nov-14 15:46N 25°47' W 080°11'0 0.0
2017-Nov-14 15:28N 25°47' W 080°11'0 0.0
2017-Nov-14 14:58N 25°47' W 080°11'0 0.0
2017-Nov-14 14:22N 25°47' W 080°11'0 0.0
2017-Nov-14 13:58N 25°47' W 080°11'0 0.0
2017-Nov-14 13:28N 25°47' W 080°11'0 0.0
2017-Nov-14 12:58N 25°47' W 080°11'0 0.0
2017-Nov-14 12:28N 25°47' W 080°11'0 0.0
2017-Nov-14 11:58N 25°47' W 080°11'0 0.0
2017-Nov-14 11:25N 25°47' W 080°11'0 0.0
2017-Nov-14 10:58N 25°47' W 080°11'0 0.0
2017-Nov-14 10:28N 25°47' W 080°11'0 0.0
2017-Nov-14 09:58N 25°47' W 080°11'0 0.0
2017-Nov-14 09:28N 25°47' W 080°11'0 0.0
2017-Nov-14 08:58N 25°47' W 080°11'0 0.0
2017-Nov-14 08:28N 25°47' W 080°11'0 0.0
2017-Nov-14 07:58N 25°47' W 080°11'0 0.0
2017-Nov-14 07:28N 25°47' W 080°11'0 0.0
2017-Nov-14 06:58N 25°47' W 080°11'0 0.0
2017-Nov-14 06:25N 25°47' W 080°11'0 0.0
2017-Nov-14 05:58N 25°47' W 080°11'0 0.0
2017-Nov-14 05:28N 25°47' W 080°11'0 0.0
2017-Nov-14 04:58N 25°47' W 080°11'0 0.0
2017-Nov-14 04:28N 25°47' W 080°11'0 0.0
2017-Nov-14 03:58N 25°47' W 080°11'0 0.0
2017-Nov-14 03:28N 25°47' W 080°11'0 0.0
2017-Nov-14 02:58N 25°47' W 080°11'0 0.0
2017-Nov-14 02:28N 25°47' W 080°11'0 0.0
2017-Nov-14 01:58N 25°47' W 080°11'0 0.0
2017-Nov-14 01:28N 25°47' W 080°11'0 0.0
2017-Nov-14 00:58N 25°47' W 080°11'0 0.0
2017-Nov-14 00:28N 25°47' W 080°11'0 0.0
2017-Nov-13 23:55N 25°47' W 080°11'0 0.0
2017-Nov-13 23:25N 25°47' W 080°11'0 0.0
2017-Nov-13 22:58N 25°47' W 080°11'0 0.0
2017-Nov-13 22:28N 25°47' W 080°11'0 0.0
2017-Nov-13 21:52N 25°47' W 080°11'0 0.0
2017-Nov-13 02:01N 25°47' W 080°11'0 0.0
2017-Nov-13 01:28N 25°47' W 080°11'0 0.0
2017-Nov-13 01:01N 25°47' W 080°11'0 0.0
2017-Nov-13 00:28N 25°47' W 080°11'0 0.0
2017-Nov-12 23:57N 25°47' W 080°11'0 0.0
2017-Nov-12 23:31N 25°47' W 080°11'0 0.0
2017-Nov-12 23:01N 25°47' W 080°11'0 0.0
2017-Nov-12 22:27N 25°47' W 080°11'0 0.0
2017-Nov-12 22:00N 25°47' W 080°11'0 0.0
2017-Nov-12 21:31N 25°47' W 080°11'0 0.0
2017-Nov-12 21:00N 25°47' W 080°11'0 0.0
2017-Nov-12 20:31N 25°47' W 080°11'0 0.0
2017-Nov-12 20:01N 25°47' W 080°11'0 0.0
2017-Nov-12 19:30N 25°47' W 080°11'0 0.0
2017-Nov-12 18:58N 25°47' W 080°11'0 0.0
2017-Nov-12 18:30N 25°47' W 080°11'0 0.0
2017-Nov-12 18:00N 25°47' W 080°11'0 0.0
2017-Nov-12 17:30N 25°47' W 080°11'0 0.0
2017-Nov-12 17:00N 25°47' W 080°11'0 0.0
2017-Nov-12 16:28N 25°47' W 080°11'0 0.0
2017-Nov-12 15:57N 25°47' W 080°11'0 0.0
2017-Nov-12 15:30N 25°47' W 080°11'0 0.0
2017-Nov-12 14:58N 25°47' W 080°11'0 0.0
2017-Nov-12 14:28N 25°47' W 080°11'0 0.0
2017-Nov-12 14:00N 25°47' W 080°11'0 0.0
2017-Nov-12 13:27N 25°47' W 080°11'0 0.0
2017-Nov-12 13:00N 25°47' W 080°11'0 0.0
2017-Nov-12 12:30N 25°47' W 080°11'0 0.0
2017-Nov-12 12:00N 25°47' W 080°11'0 0.0
2017-Nov-12 11:30N 25°47' W 080°11'0 0.0
2017-Nov-12 10:57N 25°47' W 080°11'0 0.0
2017-Nov-12 10:30N 25°47' W 080°11'0 0.0
2017-Nov-12 10:00N 25°47' W 080°11'0 0.0
2017-Nov-12 09:31N 25°47' W 080°11'0 0.0
2017-Nov-12 09:00N 25°47' W 080°11'0 0.0
2017-Nov-12 08:30N 25°47' W 080°11'0 0.0
2017-Nov-12 08:00N 25°47' W 080°11'0 0.0
2017-Nov-12 07:30N 25°47' W 080°11'0 0.0
2017-Nov-12 07:00N 25°47' W 080°11'0 0.0
2017-Nov-12 06:27N 25°47' W 080°11'0 0.0
2017-Nov-12 06:01N 25°47' W 080°11'0 0.0
2017-Nov-12 05:30N 25°47' W 080°11'0 0.0
2017-Nov-12 05:00N 25°47' W 080°11'0 0.0
2017-Nov-12 04:30N 25°47' W 080°11'0 0.0
2017-Nov-12 04:00N 25°47' W 080°11'0 0.0
2017-Nov-12 03:31N 25°47' W 080°11'0 0.0
2017-Nov-12 03:00N 25°47' W 080°11'0 0.0
2017-Nov-12 02:27N 25°47' W 080°11'0 0.0
2017-Nov-12 01:57N 25°47' W 080°11'0 0.0
2017-Nov-12 01:30N 25°47' W 080°11'0 0.0
2017-Nov-12 01:00N 25°47' W 080°11'0 0.0
2017-Nov-12 00:24N 25°47' W 080°11'0 0.0
2017-Nov-11 23:54N 25°47' W 080°11'0 0.0
2017-Nov-11 23:21N 25°47' W 080°11'0 0.0
2017-Nov-11 23:00N 25°47' W 080°11'0 0.0
2017-Nov-11 22:27N 25°47' W 080°11'0 0.0
2017-Nov-11 22:00N 25°47' W 080°11'0 0.0
2017-Nov-11 21:27N 25°47' W 080°11'0 0.0
2017-Nov-11 21:00N 25°47' W 080°11'0 0.0
2017-Nov-11 20:27N 25°47' W 080°11'0 0.0
2017-Nov-11 20:00N 25°47' W 080°11'0 0.0
2017-Nov-11 19:27N 25°47' W 080°11'0 0.0
2017-Nov-11 18:57N 25°47' W 080°11'0 0.0
2017-Nov-11 18:27N 25°47' W 080°11'0 0.0
2017-Nov-11 18:00N 25°47' W 080°11'0 0.0
2017-Nov-11 17:27N 25°47' W 080°11'0 0.0
2017-Nov-11 17:00N 25°47' W 080°11'0 0.0
2017-Nov-11 16:30N 25°47' W 080°11'0 0.0
2017-Nov-11 16:00N 25°47' W 080°11'0 0.0
2017-Nov-11 15:30N 25°47' W 080°11'0 0.0
2017-Nov-11 15:00N 25°47' W 080°11'0 0.0
2017-Nov-11 14:30N 25°47' W 080°11'0 0.0
2017-Nov-11 13:57N 25°47' W 080°11'0 0.0
2017-Nov-11 13:30N 25°47' W 080°11'0 0.0
2017-Nov-11 13:00N 25°47' W 080°11'0 0.0
2017-Nov-11 12:30N 25°47' W 080°11'0 0.0
2017-Nov-11 12:00N 25°47' W 080°11'0 0.0
2017-Nov-11 11:30N 25°47' W 080°11'0 0.0
2017-Nov-11 11:00N 25°47' W 080°11'0 0.0
2017-Nov-11 10:30N 25°47' W 080°11'0 0.0
2017-Nov-11 09:57N 25°47' W 080°11'0 0.0
2017-Nov-11 09:27N 25°47' W 080°11'0 0.0
2017-Nov-11 09:00N 25°47' W 080°11'0 0.0
2017-Nov-11 08:30N 25°47' W 080°11'0 0.0
2017-Nov-11 08:00N 25°47' W 080°11'0 0.0
2017-Nov-11 07:30N 25°47' W 080°11'0 0.0
2017-Nov-11 07:00N 25°47' W 080°11'0 0.0
2017-Nov-11 06:27N 25°47' W 080°11'0 0.0
2017-Nov-11 06:00N 25°47' W 080°11'0 0.0
2017-Nov-11 05:30N 25°47' W 080°11'0 0.0
2017-Nov-11 05:00N 25°47' W 080°11'0 0.0
2017-Nov-11 04:30N 25°47' W 080°11'0 0.0
2017-Nov-11 03:57N 25°47' W 080°11'0 0.0
2017-Nov-11 03:30N 25°47' W 080°11'0 0.0
2017-Nov-11 03:00N 25°47' W 080°11'0 0.0
2017-Nov-11 02:30N 25°47' W 080°11'0 0.0
2017-Nov-11 02:00N 25°47' W 080°11'0 0.0
2017-Nov-11 01:30N 25°47' W 080°11'0 0.0
2017-Nov-11 01:00N 25°47' W 080°11'0 0.0
2017-Nov-11 00:30N 25°47' W 080°11'0 0.0
2017-Nov-11 00:00N 25°47' W 080°11'0 0.0
2017-Nov-10 23:30N 25°47' W 080°11'0 0.0
2017-Nov-10 23:00N 25°47' W 080°11'0 0.0
2017-Nov-10 22:30N 25°47' W 080°11'0 0.0
2017-Nov-10 22:00N 25°47' W 080°11'0 0.0
2017-Nov-10 21:30N 25°47' W 080°11'0 0.0
2017-Nov-10 21:00N 25°47' W 080°11'0 0.0
2017-Nov-10 20:30N 25°47' W 080°11'0 0.0
2017-Nov-10 20:00N 25°47' W 080°11'0 0.0
2017-Nov-10 19:30N 25°47' W 080°11'0 0.0
2017-Nov-10 19:00N 25°47' W 080°11'0 0.0
2017-Nov-10 18:30N 25°47' W 080°11'0 0.0
2017-Nov-10 18:00N 25°47' W 080°11'0 0.0
2017-Nov-10 17:30N 25°47' W 080°11'0 0.0
2017-Nov-10 17:00N 25°47' W 080°11'0 0.0
2017-Nov-10 16:30N 25°47' W 080°11'0 0.0
2017-Nov-10 16:00N 25°47' W 080°11'0 0.0
2017-Nov-10 15:27N 25°47' W 080°11'0 0.0
2017-Nov-10 15:00N 25°47' W 080°11'0 0.0
2017-Nov-10 14:27N 25°47' W 080°11'0 0.0
2017-Nov-10 14:00N 25°47' W 080°11'0 0.0
2017-Nov-10 13:27N 25°47' W 080°11'0 0.0
2017-Nov-10 12:57N 25°47' W 080°11'0 0.0
2017-Nov-10 12:30N 25°47' W 080°11'0 0.0
2017-Nov-10 12:00N 25°47' W 080°11'0 0.0
2017-Nov-10 11:30N 25°47' W 080°11'0 0.0
2017-Nov-10 11:00N 25°47' W 080°11'0 0.0
2017-Nov-10 10:30N 25°47' W 080°11'0 0.0
2017-Nov-10 10:00N 25°47' W 080°11'0 0.0
2017-Nov-10 09:30N 25°47' W 080°11'0 0.0
2017-Nov-10 09:00N 25°47' W 080°11'0 0.0
2017-Nov-10 08:30N 25°47' W 080°11'0 0.0
2017-Nov-10 08:00N 25°47' W 080°11'0 0.0
2017-Nov-10 07:30N 25°47' W 080°11'0 0.0
2017-Nov-10 07:00N 25°47' W 080°11'0 0.0
2017-Nov-10 06:30N 25°47' W 080°11'0 0.0
2017-Nov-10 06:00N 25°47' W 080°11'0 0.0
2017-Nov-10 05:30N 25°47' W 080°11'0 0.0
2017-Nov-10 05:00N 25°47' W 080°11'0 0.0
2017-Nov-10 04:30N 25°47' W 080°11'0 0.0
2017-Nov-10 04:00N 25°47' W 080°11'0 0.0
2017-Nov-10 03:30N 25°47' W 080°11'0 0.0
2017-Nov-10 03:00N 25°47' W 080°11'0 0.0
2017-Nov-10 02:30N 25°47' W 080°11'0 0.0
2017-Nov-10 02:00N 25°47' W 080°11'0 0.0
2017-Nov-10 01:30N 25°47' W 080°11'0 0.0
2017-Nov-10 00:57N 25°47' W 080°11'0 0.0
2017-Nov-10 00:30N 25°47' W 080°11'0 0.0
2017-Nov-10 00:00N 25°47' W 080°11'0 0.0
2017-Nov-09 23:30N 25°47' W 080°11'0 0.0
2017-Nov-09 23:00N 25°47' W 080°11'0 0.0
2017-Nov-09 22:30N 25°47' W 080°11'0 0.0
2017-Nov-09 22:00N 25°47' W 080°11'0 0.0
2017-Nov-09 21:30N 25°47' W 080°11'0 0.0
2017-Nov-09 21:00N 25°47' W 080°11'0 0.0
2017-Nov-09 20:30N 25°47' W 080°11'0 0.0
2017-Nov-09 20:00N 25°47' W 080°11'0 0.0
2017-Nov-09 19:30N 25°47' W 080°11'0 0.0
2017-Nov-09 19:00N 25°47' W 080°11'0 0.0
2017-Nov-09 18:30N 25°47' W 080°11'0 0.0
2017-Nov-09 18:00N 25°47' W 080°11'0 0.0
2017-Nov-09 17:30N 25°47' W 080°11'0 0.0
2017-Nov-09 17:00N 25°47' W 080°11'0 0.0
2017-Nov-09 16:30N 25°47' W 080°11'0 0.0
2017-Nov-09 15:57N 25°47' W 080°11'0 0.0
2017-Nov-09 15:30N 25°47' W 080°11'0 0.0
2017-Nov-09 15:00N 25°47' W 080°11'0 0.0
2017-Nov-09 14:24N 25°47' W 080°11'0 0.0
2017-Nov-09 13:57N 25°47' W 080°11'0 0.0
2017-Nov-09 13:27N 25°47' W 080°11'0 0.0
2017-Nov-09 12:57N 25°47' W 080°11'0 0.0
2017-Nov-09 12:30N 25°47' W 080°11'0 0.0
2017-Nov-09 12:00N 25°47' W 080°11'0 0.0
2017-Nov-09 11:30N 25°47' W 080°11'0 0.0
2017-Nov-09 11:00N 25°47' W 080°11'0 0.0
2017-Nov-09 10:27N 25°47' W 080°11'0 0.0
2017-Nov-09 10:00N 25°47' W 080°11'0 0.0
2017-Nov-09 09:30N 25°47' W 080°11'0 0.0
2017-Nov-09 09:00N 25°47' W 080°11'0 0.0
2017-Nov-09 08:30N 25°47' W 080°11'0 0.0
2017-Nov-09 08:00N 25°47' W 080°11'0 0.0
2017-Nov-09 07:27N 25°47' W 080°11'0 0.0
2017-Nov-09 07:00N 25°47' W 080°11'0 0.0
2017-Nov-09 06:30N 25°47' W 080°11'0 0.0
2017-Nov-09 06:00N 25°47' W 080°11'0 0.0
2017-Nov-09 05:30N 25°47' W 080°11'0 0.0
2017-Nov-09 05:00N 25°47' W 080°11'0 0.0
2017-Nov-09 04:30N 25°47' W 080°11'0 0.0
2017-Nov-09 04:00N 25°47' W 080°11'0 0.0
2017-Nov-09 03:30N 25°47' W 080°11'0 0.0
2017-Nov-09 03:00N 25°47' W 080°11'0 0.0
2017-Nov-09 02:30N 25°47' W 080°11'0 0.0
2017-Nov-09 02:00N 25°47' W 080°11'0 0.0
2017-Nov-09 01:30N 25°47' W 080°11'0 0.0
2017-Nov-09 01:00N 25°47' W 080°11'0 0.0
2017-Nov-09 00:30N 25°47' W 080°11'0 0.0
2017-Nov-09 00:00N 25°47' W 080°11'0 0.0
2017-Nov-08 23:27N 25°47' W 080°11'0 0.0
2017-Nov-08 22:51N 25°47' W 080°11'0 0.0
2017-Nov-08 22:30N 25°47' W 080°11'0 0.0
2017-Nov-08 22:00N 25°47' W 080°11'0 0.0
2017-Nov-08 21:30N 25°47' W 080°11'0 0.0
2017-Nov-08 21:00N 25°47' W 080°11'0 0.0
2017-Nov-08 20:30N 25°47' W 080°11'0 0.0
2017-Nov-08 19:57N 25°47' W 080°11'0 0.0
2017-Nov-08 19:27N 25°47' W 080°11'0 0.0
2017-Nov-08 19:00N 25°47' W 080°11'0 0.0
2017-Nov-08 18:30N 25°47' W 080°11'0 0.0
2017-Nov-08 17:57N 25°47' W 080°11'0 0.0
2017-Nov-08 17:30N 25°47' W 080°11'0 0.0
2017-Nov-08 17:00N 25°47' W 080°11'0 0.0
2017-Nov-08 16:30N 25°47' W 080°11'0 0.0
2017-Nov-08 16:00N 25°47' W 080°11'0 0.0
2017-Nov-08 15:30N 25°47' W 080°11'0 0.0
2017-Nov-08 15:00N 25°47' W 080°11'0 0.0
2017-Nov-08 14:30N 25°47' W 080°11'0 0.0
2017-Nov-08 14:00N 25°47' W 080°11'0 0.0
2017-Nov-08 13:30N 25°47' W 080°11'0 0.0
2017-Nov-08 13:00N 25°47' W 080°11'0 0.0
2017-Nov-08 12:30N 25°47' W 080°11'0 0.0
2017-Nov-08 12:00N 25°47' W 080°11'0 0.0
2017-Nov-08 11:30N 25°47' W 080°11'0 0.0
2017-Nov-08 11:00N 25°47' W 080°11'0 0.0
2017-Nov-08 10:30N 25°47' W 080°11'0 0.0
2017-Nov-08 10:00N 25°47' W 080°11'0 0.0
2017-Nov-08 09:30N 25°47' W 080°11'0 0.0
2017-Nov-08 08:51N 25°47' W 080°11'0 0.0
2017-Nov-08 08:30N 25°47' W 080°11'0 0.0
2017-Nov-08 08:00N 25°47' W 080°11'0 0.0
2017-Nov-08 07:30N 25°47' W 080°11'0 0.0
2017-Nov-08 06:57N 25°47' W 080°11'0 0.0
2017-Nov-08 06:24N 25°47' W 080°11'0 0.0
2017-Nov-08 05:54N 25°47' W 080°11'0 0.0
2017-Nov-08 05:30N 25°47' W 080°11'0 0.0
2017-Nov-08 04:57N 25°47' W 080°11'0 0.0
2017-Nov-08 04:30N 25°47' W 080°11'0 0.0
2017-Nov-08 04:00N 25°47' W 080°11'0 0.0
2017-Nov-08 03:30N 25°47' W 080°11'0 0.0
2017-Nov-08 02:57N 25°47' W 080°11'0 0.0
2017-Nov-08 02:30N 25°47' W 080°11'0 0.0
2017-Nov-08 01:57N 25°47' W 080°11'0 0.0
2017-Nov-08 01:30N 25°47' W 080°11'0 0.0
2017-Nov-08 01:00N 25°47' W 080°11'0 0.0
2017-Nov-08 00:30N 25°47' W 080°11'0 0.0
2017-Nov-08 00:00N 25°47' W 080°11'0 0.0
2017-Nov-07 23:30N 25°47' W 080°11'0 0.0
2017-Nov-07 23:00N 25°47' W 080°11'0 0.0
2017-Nov-07 22:30N 25°47' W 080°11'0 0.0
2017-Nov-07 22:00N 25°47' W 080°11'0 0.0
2017-Nov-07 21:30N 25°47' W 080°11'0 0.0
2017-Nov-07 21:00N 25°47' W 080°11'  
Track history (hours):
 
Tides and Currents Weather Stations Pressure Air Temp Water Temp Dewpoint Dewpoint Depression Visibility Wind Speed Wind Dir Waves Ship Positions

M/y La Pellegrina

Last reported at 2017-Nov-17 21:00 UTC. Time now 2017-Nov-17 21:08 UTC.
Position N 25°47' W 080°11'.

Length 44 m; draft 2.6 m.

Type: Pleasure craft. MMSI: 319090300.

Date/timePositionNaut miles runAvg speedWind from/ knotsBaromVisibWave heightAir tempDewpointWater temp
2017-Nov-17 21:00N 25°47' W 080°11'0 0.0
2017-Nov-17 20:30N 25°47' W 080°11'0 0.0
2017-Nov-17 20:00N 25°47' W 080°11'0 0.0
2017-Nov-17 19:30N 25°47' W 080°11'0 0.0
2017-Nov-17 19:00N 25°47' W 080°11'0 0.0
2017-Nov-17 18:30N 25°47' W 080°11'0 0.0
2017-Nov-17 18:00N 25°47' W 080°11'0 0.0
2017-Nov-17 17:30N 25°47' W 080°11'0 0.0
2017-Nov-17 17:00N 25°47' W 080°11'0 0.0
2017-Nov-17 16:30N 25°47' W 080°11'0 0.0
2017-Nov-17 16:00N 25°47' W 080°11'0 0.0
2017-Nov-17 15:30N 25°47' W 080°11'0 0.0
2017-Nov-17 15:00N 25°47' W 080°11'0 0.0
2017-Nov-17 14:30N 25°47' W 080°11'0 0.0
2017-Nov-17 14:00N 25°47' W 080°11'0 0.0
2017-Nov-17 13:30N 25°47' W 080°11'0 0.0
2017-Nov-17 13:00N 25°47' W 080°11'0 0.0
2017-Nov-17 12:30N 25°47' W 080°11'0 0.0
2017-Nov-17 12:00N 25°47' W 080°11'0 0.0
2017-Nov-17 11:30N 25°47' W 080°11'0 0.0
2017-Nov-17 11:00N 25°47' W 080°11'0 0.0
2017-Nov-17 10:30N 25°47' W 080°11'0 0.0
2017-Nov-17 10:00N 25°47' W 080°11'0 0.0
2017-Nov-17 09:30N 25°47' W 080°11'0 0.0
2017-Nov-17 09:00N 25°47' W 080°11'0 0.0
2017-Nov-17 08:30N 25°47' W 080°11'0 0.0
2017-Nov-17 08:00N 25°47' W 080°11'0 0.0
2017-Nov-17 07:30N 25°47' W 080°11'0 0.0
2017-Nov-17 07:00N 25°47' W 080°11'0 0.0
2017-Nov-17 06:30N 25°47' W 080°11'0 0.0
2017-Nov-17 06:00N 25°47' W 080°11'0 0.0
2017-Nov-17 05:30N 25°47' W 080°11'0 0.0
2017-Nov-17 05:00N 25°47' W 080°11'0 0.0
2017-Nov-17 04:30N 25°47' W 080°11'0 0.0
2017-Nov-17 04:00N 25°47' W 080°11'0 0.0
2017-Nov-17 03:30N 25°47' W 080°11'0 0.0
2017-Nov-17 03:00N 25°47' W 080°11'0 0.0
2017-Nov-17 02:30N 25°47' W 080°11'0 0.0
2017-Nov-17 02:00N 25°47' W 080°11'0 0.0
2017-Nov-17 01:30N 25°47' W 080°11'0 0.0
2017-Nov-17 01:00N 25°47' W 080°11'0 0.0
2017-Nov-17 00:30N 25°47' W 080°11'0 0.0
2017-Nov-17 00:00N 25°47' W 080°11'0 0.0
2017-Nov-16 23:30N 25°47' W 080°11'0 0.0
2017-Nov-16 23:00N 25°47' W 080°11'0 0.0
2017-Nov-16 22:30N 25°47' W 080°11'0 0.0
2017-Nov-16 22:00N 25°47' W 080°11'0 0.0
2017-Nov-16 21:30N 25°47' W 080°11'1 1.2
2017-Nov-16 21:00N 25°47' W 080°11'2 3.2
2017-Nov-16 20:30N 25°46' W 080°09'2 3.9
2017-Nov-16 20:00N 25°46' W 080°07'0 0.0
2017-Nov-16 19:30N 25°46' W 080°07'0 0.0
2017-Nov-16 19:00N 25°46' W 080°07'0 0.0
2017-Nov-16 18:30N 25°46' W 080°07'0 0.0
2017-Nov-16 18:00N 25°46' W 080°07'0 0.0
2017-Nov-16 17:30N 25°46' W 080°07'2 4.6
2017-Nov-16 17:00N 25°46' W 080°05'0 0.6
2017-Nov-16 16:30N 25°46' W 080°04'4 7.2
2017-Nov-16 16:00N 25°43' W 080°04'4 7.9
2017-Nov-16 15:30N 25°39' W 080°04'1 1.5
2017-Nov-16 15:00N 25°39' W 080°04'613.1
2017-Nov-16 14:30N 25°45' W 080°07'4 7.4
2017-Nov-16 13:58N 25°47' W 080°11'0 0.4
2017-Nov-16 13:28N 25°47' W 080°11'0 0.0
2017-Nov-16 12:58N 25°47' W 080°11'0 0.0
2017-Nov-16 12:28N 25°47' W 080°11'0 0.0
2017-Nov-16 11:55N 25°47' W 080°11'0 0.0
2017-Nov-16 11:22N 25°47' W 080°11'0 0.0
2017-Nov-16 10:58N 25°47' W 080°11'0 0.0
2017-Nov-16 10:28N 25°47' W 080°11'0 0.0
2017-Nov-16 09:58N 25°47' W 080°11'0 0.0
2017-Nov-16 09:28N 25°47' W 080°11'0 0.0
2017-Nov-16 08:58N 25°47' W 080°11'0 0.0
2017-Nov-16 08:28N 25°47' W 080°11'0 0.0
2017-Nov-16 07:58N 25°47' W 080°11'0 0.0
2017-Nov-16 07:28N 25°47' W 080°11'0 0.0
2017-Nov-16 06:58N 25°47' W 080°11'0 0.0
2017-Nov-16 06:25N 25°47' W 080°11'0 0.0
2017-Nov-16 05:58N 25°47' W 080°11'0 0.0
2017-Nov-16 05:28N 25°47' W 080°11'0 0.0
2017-Nov-16 04:58N 25°47' W 080°11'0 0.0
2017-Nov-16 04:28N 25°47' W 080°11'0 0.0
2017-Nov-16 03:58N 25°47' W 080°11'0 0.0
2017-Nov-16 03:28N 25°47' W 080°11'0 0.0
2017-Nov-16 02:58N 25°47' W 080°11'0 0.0
2017-Nov-16 02:28N 25°47' W 080°11'0 0.0
2017-Nov-16 01:58N 25°47' W 080°11'0 0.0
2017-Nov-16 01:28N 25°47' W 080°11'0 0.0
2017-Nov-16 00:58N 25°47' W 080°11'0 0.0
2017-Nov-16 00:28N 25°47' W 080°11'0 0.0
2017-Nov-15 23:58N 25°47' W 080°11'0 0.0
2017-Nov-15 23:25N 25°47' W 080°11'0 0.0
2017-Nov-15 22:58N 25°47' W 080°11'0 0.0
2017-Nov-15 22:28N 25°47' W 080°11'0 0.0
2017-Nov-15 21:58N 25°47' W 080°11'0 0.0
2017-Nov-15 21:25N 25°47' W 080°11'0 0.0
2017-Nov-15 20:58N 25°47' W 080°11'0 0.0
2017-Nov-15 20:22N 25°47' W 080°11'0 0.0
2017-Nov-15 19:55N 25°47' W 080°11'0 0.0
2017-Nov-15 19:25N 25°47' W 080°11'0 0.0
2017-Nov-15 18:58N 25°47' W 080°11'0 0.0
2017-Nov-15 18:28N 25°47' W 080°11'0 0.0
2017-Nov-15 17:52N 25°47' W 080°11'0 0.0
2017-Nov-15 17:28N 25°47' W 080°11'0 0.0
2017-Nov-15 16:58N 25°47' W 080°11'0 0.0
2017-Nov-15 16:28N 25°47' W 080°11'0 0.0
2017-Nov-15 15:58N 25°47' W 080°11'0 0.0
2017-Nov-15 15:28N 25°47' W 080°11'0 0.0
2017-Nov-15 14:58N 25°47' W 080°11'0 0.0
2017-Nov-15 14:28N 25°47' W 080°11'0 0.0
2017-Nov-15 13:55N 25°47' W 080°11'0 0.0
2017-Nov-15 13:28N 25°47' W 080°11'0 0.0
2017-Nov-15 12:58N 25°47' W 080°11'0 0.0
2017-Nov-15 12:28N 25°47' W 080°11'0 0.0
2017-Nov-15 11:58N 25°47' W 080°11'0 0.0
2017-Nov-15 11:28N 25°47' W 080°11'0 0.0
2017-Nov-15 10:58N 25°47' W 080°11'0 0.0
2017-Nov-15 10:28N 25°47' W 080°11'0 0.0
2017-Nov-15 09:58N 25°47' W 080°11'0 0.0
2017-Nov-15 09:28N 25°47' W 080°11'0 0.0
2017-Nov-15 08:58N 25°47' W 080°11'0 0.0
2017-Nov-15 08:28N 25°47' W 080°11'0 0.0
2017-Nov-15 07:58N 25°47' W 080°11'0 0.0
2017-Nov-15 07:28N 25°47' W 080°11'0 0.0
2017-Nov-15 06:55N 25°47' W 080°11'0 0.0
2017-Nov-15 06:25N 25°47' W 080°11'0 0.0
2017-Nov-15 05:58N 25°47' W 080°11'0 0.0
2017-Nov-15 05:25N 25°47' W 080°11'0 0.0
2017-Nov-15 04:58N 25°47' W 080°11'0 0.0
2017-Nov-15 04:28N 25°47' W 080°11'0 0.0
2017-Nov-15 03:55N 25°47' W 080°11'0 0.0
2017-Nov-15 03:28N 25°47' W 080°11'0 0.0
2017-Nov-15 02:55N 25°47' W 080°11'0 0.0
2017-Nov-15 02:28N 25°47' W 080°11'0 0.0
2017-Nov-15 01:58N 25°47' W 080°11'0 0.0
2017-Nov-15 01:28N 25°47' W 080°11'0 0.0
2017-Nov-15 00:55N 25°47' W 080°11'0 0.0
2017-Nov-15 00:28N 25°47' W 080°11'0 0.0
2017-Nov-14 23:55N 25°47' W 080°11'0 0.0
2017-Nov-14 23:28N 25°47' W 080°11'0 0.0
2017-Nov-14 22:55N 25°47' W 080°11'0 0.0
2017-Nov-14 22:28N 25°47' W 080°11'0 0.0
2017-Nov-14 21:58N 25°47' W 080°11'0 0.0
2017-Nov-14 21:28N 25°47' W 080°11'0 0.0
2017-Nov-14 20:58N 25°47' W 080°11'0 0.0
2017-Nov-14 20:28N 25°47' W 080°11'0 0.0
2017-Nov-14 19:55N 25°47' W 080°11'0 0.0
2017-Nov-14 19:28N 25°47' W 080°11'0 0.0
2017-Nov-14 18:58N 25°47' W 080°11'0 0.0
2017-Nov-14 18:28N 25°47' W 080°11'0 0.0
2017-Nov-14 17:58N 25°47' W 080°11'0 0.0
2017-Nov-14 17:28N 25°47' W 080°11'0 0.0
2017-Nov-14 16:58N 25°47' W 080°11'0 0.0
2017-Nov-14 16:25N 25°47' W 080°11'0 0.0
2017-Nov-14 15:46N 25°47' W 080°11'0 0.0
2017-Nov-14 15:28N 25°47' W 080°11'0 0.0
2017-Nov-14 14:58N 25°47' W 080°11'0 0.0
2017-Nov-14 14:22N 25°47' W 080°11'0 0.0
2017-Nov-14 13:58N 25°47' W 080°11'0 0.0
2017-Nov-14 13:28N 25°47' W 080°11'0 0.0
2017-Nov-14 12:58N 25°47' W 080°11'0 0.0
2017-Nov-14 12:28N 25°47' W 080°11'0 0.0
2017-Nov-14 11:58N 25°47' W 080°11'0 0.0
2017-Nov-14 11:25N 25°47' W 080°11'0 0.0
2017-Nov-14 10:58N 25°47' W 080°11'0 0.0
2017-Nov-14 10:28N 25°47' W 080°11'0 0.0
2017-Nov-14 09:58N 25°47' W 080°11'0 0.0
2017-Nov-14 09:28N 25°47' W 080°11'0 0.0
2017-Nov-14 08:58N 25°47' W 080°11'0 0.0
2017-Nov-14 08:28N 25°47' W 080°11'0 0.0
2017-Nov-14 07:58N 25°47' W 080°11'0 0.0
2017-Nov-14 07:28N 25°47' W 080°11'0 0.0
2017-Nov-14 06:58N 25°47' W 080°11'0 0.0
2017-Nov-14 06:25N 25°47' W 080°11'0 0.0
2017-Nov-14 05:58N 25°47' W 080°11'0 0.0
2017-Nov-14 05:28N 25°47' W 080°11'0 0.0
2017-Nov-14 04:58N 25°47' W 080°11'0 0.0
2017-Nov-14 04:28N 25°47' W 080°11'0 0.0
2017-Nov-14 03:58N 25°47' W 080°11'0 0.0
2017-Nov-14 03:28N 25°47' W 080°11'0 0.0
2017-Nov-14 02:58N 25°47' W 080°11'0 0.0
2017-Nov-14 02:28N 25°47' W 080°11'0 0.0
2017-Nov-14 01:58N 25°47' W 080°11'0 0.0
2017-Nov-14 01:28N 25°47' W 080°11'0 0.0
2017-Nov-14 00:58N 25°47' W 080°11'0 0.0
2017-Nov-14 00:28N 25°47' W 080°11'0 0.0
2017-Nov-13 23:55N 25°47' W 080°11'0 0.0
2017-Nov-13 23:25N 25°47' W 080°11'0 0.0
2017-Nov-13 22:58N 25°47' W 080°11'0 0.0
2017-Nov-13 22:28N 25°47' W 080°11'0 0.0
2017-Nov-13 21:52N 25°47' W 080°11'0 0.0
2017-Nov-13 02:01N 25°47' W 080°11'0 0.0
2017-Nov-13 01:28N 25°47' W 080°11'0 0.0
2017-Nov-13 01:01N 25°47' W 080°11'0 0.0
2017-Nov-13 00:28N 25°47' W 080°11'0 0.0
2017-Nov-12 23:57N 25°47' W 080°11'0 0.0
2017-Nov-12 23:31N 25°47' W 080°11'0 0.0
2017-Nov-12 23:01N 25°47' W 080°11'0 0.0
2017-Nov-12 22:27N 25°47' W 080°11'0 0.0
2017-Nov-12 22:00N 25°47' W 080°11'0 0.0
2017-Nov-12 21:31N 25°47' W 080°11'0 0.0
2017-Nov-12 21:00N 25°47' W 080°11'0 0.0
2017-Nov-12 20:31N 25°47' W 080°11'0 0.0
2017-Nov-12 20:01N 25°47' W 080°11'0 0.0
2017-Nov-12 19:30N 25°47' W 080°11'0 0.0
2017-Nov-12 18:58N 25°47' W 080°11'0 0.0
2017-Nov-12 18:30N 25°47' W 080°11'0 0.0
2017-Nov-12 18:00N 25°47' W 080°11'0 0.0
2017-Nov-12 17:30N 25°47' W 080°11'0 0.0
2017-Nov-12 17:00N 25°47' W 080°11'0 0.0
2017-Nov-12 16:28N 25°47' W 080°11'0 0.0
2017-Nov-12 15:57N 25°47' W 080°11'0 0.0
2017-Nov-12 15:30N 25°47' W 080°11'0 0.0
2017-Nov-12 14:58N 25°47' W 080°11'0 0.0
2017-Nov-12 14:28N 25°47' W 080°11'0 0.0
2017-Nov-12 14:00N 25°47' W 080°11'0 0.0
2017-Nov-12 13:27N 25°47' W 080°11'0 0.0
2017-Nov-12 13:00N 25°47' W 080°11'0 0.0
2017-Nov-12 12:30N 25°47' W 080°11'0 0.0
2017-Nov-12 12:00N 25°47' W 080°11'0 0.0
2017-Nov-12 11:30N 25°47' W 080°11'0 0.0
2017-Nov-12 10:57N 25°47' W 080°11'0 0.0
2017-Nov-12 10:30N 25°47' W 080°11'0 0.0
2017-Nov-12 10:00N 25°47' W 080°11'0 0.0
2017-Nov-12 09:31N 25°47' W 080°11'0 0.0
2017-Nov-12 09:00N 25°47' W 080°11'0 0.0
2017-Nov-12 08:30N 25°47' W 080°11'0 0.0
2017-Nov-12 08:00N 25°47' W 080°11'0 0.0
2017-Nov-12 07:30N 25°47' W 080°11'0 0.0
2017-Nov-12 07:00N 25°47' W 080°11'0 0.0
2017-Nov-12 06:27N 25°47' W 080°11'0 0.0
2017-Nov-12 06:01N 25°47' W 080°11'0 0.0
2017-Nov-12 05:30N 25°47' W 080°11'0 0.0
2017-Nov-12 05:00N 25°47' W 080°11'0 0.0
2017-Nov-12 04:30N 25°47' W 080°11'0 0.0
2017-Nov-12 04:00N 25°47' W 080°11'0 0.0
2017-Nov-12 03:31N 25°47' W 080°11'0 0.0
2017-Nov-12 03:00N 25°47' W 080°11'0 0.0
2017-Nov-12 02:27N 25°47' W 080°11'0 0.0
2017-Nov-12 01:57N 25°47' W 080°11'0 0.0
2017-Nov-12 01:30N 25°47' W 080°11'0 0.0
2017-Nov-12 01:00N 25°47' W 080°11'0 0.0
2017-Nov-12 00:24N 25°47' W 080°11'0 0.0
2017-Nov-11 23:54N 25°47' W 080°11'0 0.0
2017-Nov-11 23:21N 25°47' W 080°11'0 0.0
2017-Nov-11 23:00N 25°47' W 080°11'0 0.0
2017-Nov-11 22:27N 25°47' W 080°11'0 0.0
2017-Nov-11 22:00N 25°47' W 080°11'0 0.0
2017-Nov-11 21:27N 25°47' W 080°11'0 0.0
2017-Nov-11 21:00N 25°47' W 080°11'0 0.0
2017-Nov-11 20:27N 25°47' W 080°11'0 0.0
2017-Nov-11 20:00N 25°47' W 080°11'0 0.0
2017-Nov-11 19:27N 25°47' W 080°11'0 0.0
2017-Nov-11 18:57N 25°47' W 080°11'0 0.0
2017-Nov-11 18:27N 25°47' W 080°11'0 0.0
2017-Nov-11 18:00N 25°47' W 080°11'0 0.0
2017-Nov-11 17:27N 25°47' W 080°11'0 0.0
2017-Nov-11 17:00N 25°47' W 080°11'0 0.0
2017-Nov-11 16:30N 25°47' W 080°11'0 0.0
2017-Nov-11 16:00N 25°47' W 080°11'0 0.0
2017-Nov-11 15:30N 25°47' W 080°11'0 0.0
2017-Nov-11 15:00N 25°47' W 080°11'0 0.0
2017-Nov-11 14:30N 25°47' W 080°11'0 0.0
2017-Nov-11 13:57N 25°47' W 080°11'0 0.0
2017-Nov-11 13:30N 25°47' W 080°11'0 0.0
2017-Nov-11 13:00N 25°47' W 080°11'0 0.0
2017-Nov-11 12:30N 25°47' W 080°11'0 0.0
2017-Nov-11 12:00N 25°47' W 080°11'0 0.0
2017-Nov-11 11:30N 25°47' W 080°11'0 0.0
2017-Nov-11 11:00N 25°47' W 080°11'0 0.0
2017-Nov-11 10:30N 25°47' W 080°11'0 0.0
2017-Nov-11 09:57N 25°47' W 080°11'0 0.0
2017-Nov-11 09:27N 25°47' W 080°11'0 0.0
2017-Nov-11 09:00N 25°47' W 080°11'0 0.0
2017-Nov-11 08:30N 25°47' W 080°11'0 0.0
2017-Nov-11 08:00N 25°47' W 080°11'0 0.0
2017-Nov-11 07:30N 25°47' W 080°11'0 0.0
2017-Nov-11 07:00N 25°47' W 080°11'0 0.0
2017-Nov-11 06:27N 25°47' W 080°11'0 0.0
2017-Nov-11 06:00N 25°47' W 080°11'0 0.0
2017-Nov-11 05:30N 25°47' W 080°11'0 0.0
2017-Nov-11 05:00N 25°47' W 080°11'0 0.0
2017-Nov-11 04:30N 25°47' W 080°11'0 0.0
2017-Nov-11 03:57N 25°47' W 080°11'0 0.0
2017-Nov-11 03:30N 25°47' W 080°11'0 0.0
2017-Nov-11 03:00N 25°47' W 080°11'0 0.0
2017-Nov-11 02:30N 25°47' W 080°11'0 0.0
2017-Nov-11 02:00N 25°47' W 080°11'0 0.0
2017-Nov-11 01:30N 25°47' W 080°11'0 0.0
2017-Nov-11 01:00N 25°47' W 080°11'0 0.0
2017-Nov-11 00:30N 25°47' W 080°11'0 0.0
2017-Nov-11 00:00N 25°47' W 080°11'0 0.0
2017-Nov-10 23:30N 25°47' W 080°11'0 0.0
2017-Nov-10 23:00N 25°47' W 080°11'0 0.0
2017-Nov-10 22:30N 25°47' W 080°11'0 0.0
2017-Nov-10 22:00N 25°47' W 080°11'0 0.0
2017-Nov-10 21:30N 25°47' W 080°11'0 0.0
2017-Nov-10 21:00N 25°47' W 080°11'0 0.0
2017-Nov-10 20:30N 25°47' W 080°11'0 0.0
2017-Nov-10 20:00N 25°47' W 080°11'0 0.0
2017-Nov-10 19:30N 25°47' W 080°11'0 0.0
2017-Nov-10 19:00N 25°47' W 080°11'0 0.0
2017-Nov-10 18:30N 25°47' W 080°11'0 0.0
2017-Nov-10 18:00N 25°47' W 080°11'0 0.0
2017-Nov-10 17:30N 25°47' W 080°11'0 0.0
2017-Nov-10 17:00N 25°47' W 080°11'0 0.0
2017-Nov-10 16:30N 25°47' W 080°11'0 0.0
2017-Nov-10 16:00N 25°47' W 080°11'0 0.0
2017-Nov-10 15:27N 25°47' W 080°11'0 0.0
2017-Nov-10 15:00N 25°47' W 080°11'0 0.0
2017-Nov-10 14:27N 25°47' W 080°11'0 0.0
2017-Nov-10 14:00N 25°47' W 080°11'0 0.0
2017-Nov-10 13:27N 25°47' W 080°11'0 0.0
2017-Nov-10 12:57N 25°47' W 080°11'0 0.0
2017-Nov-10 12:30N 25°47' W 080°11'0 0.0
2017-Nov-10 12:00N 25°47' W 080°11'0 0.0
2017-Nov-10 11:30N 25°47' W 080°11'0 0.0
2017-Nov-10 11:00N 25°47' W 080°11'0 0.0
2017-Nov-10 10:30N 25°47' W 080°11'0 0.0
2017-Nov-10 10:00N 25°47' W 080°11'0 0.0
2017-Nov-10 09:30N 25°47' W 080°11'0 0.0
2017-Nov-10 09:00N 25°47' W 080°11'0 0.0
2017-Nov-10 08:30N 25°47' W 080°11'0 0.0
2017-Nov-10 08:00N 25°47' W 080°11'0 0.0
2017-Nov-10 07:30N 25°47' W 080°11'0 0.0
2017-Nov-10 07:00N 25°47' W 080°11'0 0.0
2017-Nov-10 06:30N 25°47' W 080°11'0 0.0
2017-Nov-10 06:00N 25°47' W 080°11'0 0.0
2017-Nov-10 05:30N 25°47' W 080°11'0 0.0
2017-Nov-10 05:00N 25°47' W 080°11'0 0.0
2017-Nov-10 04:30N 25°47' W 080°11'0 0.0
2017-Nov-10 04:00N 25°47' W 080°11'0 0.0
2017-Nov-10 03:30N 25°47' W 080°11'0 0.0
2017-Nov-10 03:00N 25°47' W 080°11'0 0.0
2017-Nov-10 02:30N 25°47' W 080°11'0 0.0
2017-Nov-10 02:00N 25°47' W 080°11'0 0.0
2017-Nov-10 01:30N 25°47' W 080°11'0 0.0
2017-Nov-10 00:57N 25°47' W 080°11'0 0.0
2017-Nov-10 00:30N 25°47' W 080°11'0 0.0
2017-Nov-10 00:00N 25°47' W 080°11'0 0.0
2017-Nov-09 23:30N 25°47' W 080°11'0 0.0
2017-Nov-09 23:00N 25°47' W 080°11'0 0.0
2017-Nov-09 22:30N 25°47' W 080°11'0 0.0
2017-Nov-09 22:00N 25°47' W 080°11'0 0.0
2017-Nov-09 21:30N 25°47' W 080°11'0 0.0
2017-Nov-09 21:00N 25°47' W 080°11'0 0.0
2017-Nov-09 20:30N 25°47' W 080°11'0 0.0
2017-Nov-09 20:00N 25°47' W 080°11'0 0.0
2017-Nov-09 19:30N 25°47' W 080°11'0 0.0
2017-Nov-09 19:00N 25°47' W 080°11'0 0.0
2017-Nov-09 18:30N 25°47' W 080°11'0 0.0
2017-Nov-09 18:00N 25°47' W 080°11'0 0.0
2017-Nov-09 17:30N 25°47' W 080°11'0 0.0
2017-Nov-09 17:00N 25°47' W 080°11'0 0.0
2017-Nov-09 16:30N 25°47' W 080°11'0 0.0
2017-Nov-09 15:57N 25°47' W 080°11'0 0.0
2017-Nov-09 15:30N 25°47' W 080°11'0 0.0
2017-Nov-09 15:00N 25°47' W 080°11'0 0.0
2017-Nov-09 14:24N 25°47' W 080°11'0 0.0
2017-Nov-09 13:57N 25°47' W 080°11'0 0.0
2017-Nov-09 13:27N 25°47' W 080°11'0 0.0
2017-Nov-09 12:57N 25°47' W 080°11'0 0.0
2017-Nov-09 12:30N 25°47' W 080°11'0 0.0
2017-Nov-09 12:00N 25°47' W 080°11'0 0.0
2017-Nov-09 11:30N 25°47' W 080°11'0 0.0
2017-Nov-09 11:00N 25°47' W 080°11'0 0.0
2017-Nov-09 10:27N 25°47' W 080°11'0 0.0
2017-Nov-09 10:00N 25°47' W 080°11'0 0.0
2017-Nov-09 09:30N 25°47' W 080°11'0 0.0
2017-Nov-09 09:00N 25°47' W 080°11'0 0.0
2017-Nov-09 08:30N 25°47' W 080°11'0 0.0
2017-Nov-09 08:00N 25°47' W 080°11'0 0.0
2017-Nov-09 07:27N 25°47' W 080°11'0 0.0
2017-Nov-09 07:00N 25°47' W 080°11'0 0.0
2017-Nov-09 06:30N 25°47' W 080°11'0 0.0
2017-Nov-09 06:00N 25°47' W 080°11'0 0.0
2017-Nov-09 05:30N 25°47' W 080°11'0 0.0
2017-Nov-09 05:00N 25°47' W 080°11'0 0.0
2017-Nov-09 04:30N 25°47' W 080°11'0 0.0
2017-Nov-09 04:00N 25°47' W 080°11'0 0.0
2017-Nov-09 03:30N 25°47' W 080°11'0 0.0
2017-Nov-09 03:00N 25°47' W 080°11'0 0.0
2017-Nov-09 02:30N 25°47' W 080°11'0 0.0
2017-Nov-09 02:00N 25°47' W 080°11'0 0.0
2017-Nov-09 01:30N 25°47' W 080°11'0 0.0
2017-Nov-09 01:00N 25°47' W 080°11'0 0.0
2017-Nov-09 00:30N 25°47' W 080°11'0 0.0
2017-Nov-09 00:00N 25°47' W 080°11'0 0.0
2017-Nov-08 23:27N 25°47' W 080°11'0 0.0
2017-Nov-08 22:51N 25°47' W 080°11'0 0.0
2017-Nov-08 22:30N 25°47' W 080°11'0 0.0
2017-Nov-08 22:00N 25°47' W 080°11'0 0.0
2017-Nov-08 21:30N 25°47' W 080°11'0 0.0
2017-Nov-08 21:00N 25°47' W 080°11'0 0.0
2017-Nov-08 20:30N 25°47' W 080°11'0 0.0
2017-Nov-08 19:57N 25°47' W 080°11'0 0.0
2017-Nov-08 19:27N 25°47' W 080°11'0 0.0
2017-Nov-08 19:00N 25°47' W 080°11'0 0.0
2017-Nov-08 18:30N 25°47' W 080°11'0 0.0
2017-Nov-08 17:57N 25°47' W 080°11'0 0.0
2017-Nov-08 17:30N 25°47' W 080°11'0 0.0
2017-Nov-08 17:00N 25°47' W 080°11'0 0.0
2017-Nov-08 16:30N 25°47' W 080°11'0 0.0
2017-Nov-08 16:00N 25°47' W 080°11'0 0.0
2017-Nov-08 15:30N 25°47' W 080°11'0 0.0
2017-Nov-08 15:00N 25°47' W 080°11'0 0.0
2017-Nov-08 14:30N 25°47' W 080°11'0 0.0
2017-Nov-08 14:00N 25°47' W 080°11'0 0.0
2017-Nov-08 13:30N 25°47' W 080°11'0 0.0
2017-Nov-08 13:00N 25°47' W 080°11'0 0.0
2017-Nov-08 12:30N 25°47' W 080°11'0 0.0
2017-Nov-08 12:00N 25°47' W 080°11'0 0.0
2017-Nov-08 11:30N 25°47' W 080°11'0 0.0
2017-Nov-08 11:00N 25°47' W 080°11'0 0.0
2017-Nov-08 10:30N 25°47' W 080°11'0 0.0
2017-Nov-08 10:00N 25°47' W 080°11'0 0.0
2017-Nov-08 09:30N 25°47' W 080°11'0 0.0
2017-Nov-08 08:51N 25°47' W 080°11'0 0.0
2017-Nov-08 08:30N 25°47' W 080°11'0 0.0
2017-Nov-08 08:00N 25°47' W 080°11'0 0.0
2017-Nov-08 07:30N 25°47' W 080°11'0 0.0
2017-Nov-08 06:57N 25°47' W 080°11'0 0.0
2017-Nov-08 06:24N 25°47' W 080°11'0 0.0
2017-Nov-08 05:54N 25°47' W 080°11'0 0.0
2017-Nov-08 05:30N 25°47' W 080°11'0 0.0
2017-Nov-08 04:57N 25°47' W 080°11'0 0.0
2017-Nov-08 04:30N 25°47' W 080°11'0 0.0
2017-Nov-08 04:00N 25°47' W 080°11'0 0.0
2017-Nov-08 03:30N 25°47' W 080°11'0 0.0
2017-Nov-08 02:57N 25°47' W 080°11'0 0.0
2017-Nov-08 02:30N 25°47' W 080°11'0 0.0
2017-Nov-08 01:57N 25°47' W 080°11'0 0.0
2017-Nov-08 01:30N 25°47' W 080°11'0 0.0
2017-Nov-08 01:00N 25°47' W 080°11'0 0.0
2017-Nov-08 00:30N 25°47' W 080°11'0 0.0
2017-Nov-08 00:00N 25°47' W 080°11'0 0.0
2017-Nov-07 23:30N 25°47' W 080°11'0 0.0
2017-Nov-07 23:00N 25°47' W 080°11'0 0.0
2017-Nov-07 22:30N 25°47' W 080°11'0 0.0
2017-Nov-07 22:00N 25°47' W 080°11'0 0.0
2017-Nov-07 21:30N 25°47' W 080°11'0 0.0
2017-Nov-07 21:00N 25°47' W 080°11'  

Dump ship's entire track history